Time;durP1;ratioP1;P1;durP2;ratioP2;P2;SDS_P1;SDS_P2;PMS_P1;PMS_P2;Temp;Humidity;BMP_temperature;BMP_pressure;BME280_temperature;BME280_humidity;BME280_pressure;Samples;Min_cycle;Max_cycle;Signal;HPM_P1;HPM_P2
2023/03/06 00:00:28;;;;;;;31.15;11.85;;;;;;;;;;5020631;28;20036;-76
2023/03/06 00:02:54;;;;;;;27.23;10.70;;;;;;;;;;5023763;28;20555;-77
2023/03/06 00:05:19;;;;;;;31.90;11.50;;;;;;;;;;5022113;28;20105;-76
2023/03/06 00:07:45;;;;;;;29.80;12.05;;;;;;;;;;5024840;28;20477;-77
2023/03/06 00:10:18;;;;;;;30.83;11.82;;;;;;;;;;5030270;28;20021;-77
2023/03/06 00:12:43;;;;;;;25.77;11.93;;;;;;;;;;5028660;28;20476;-76
2023/03/06 00:15:10;;;;;;;29.00;11.65;;;;;;;;;;5030349;28;20025;-75
2023/03/06 00:17:35;;;;;;;29.40;11.93;;;;;;;;;;5018449;28;20026;-78
2023/03/06 00:20:01;;;;;;;29.23;12.18;;;;;;;;;;5012522;28;20034;-77
2023/03/06 00:22:26;;;;;;;29.10;12.90;;;;;;;;;;5022429;28;20056;-76
2023/03/06 00:24:54;;;;;;;26.20;11.35;;;;;;;;;;5024144;28;20543;-77
2023/03/06 00:27:20;;;;;;;31.42;12.52;;;;;;;;;;5011057;28;20033;-76
2023/03/06 00:29:49;;;;;;;31.77;12.60;;;;;;;;;;5011105;28;20018;-77
2023/03/06 00:32:15;;;;;;;32.85;12.70;;;;;;;;;;5028382;28;20033;-76
2023/03/06 00:34:40;;;;;;;30.83;11.82;;;;;;;;;;5020809;28;20018;-77
2023/03/06 00:37:06;;;;;;;28.83;12.00;;;;;;;;;;5019517;28;20108;-77
2023/03/06 00:39:31;;;;;;;35.78;12.85;;;;;;;;;;5010925;28;20022;-77
2023/03/06 00:41:57;;;;;;;33.65;12.75;;;;;;;;;;5011950;28;20056;-77
2023/03/06 00:44:22;;;;;;;33.20;13.07;;;;;;;;;;5020675;28;20030;-77
2023/03/06 00:46:48;;;;;;;30.70;12.55;;;;;;;;;;5023638;28;20424;-77
2023/03/06 00:49:15;;;;;;;29.05;12.52;;;;;;;;;;5031849;28;20025;-77
2023/03/06 00:51:40;;;;;;;32.85;12.68;;;;;;;;;;5024008;28;20033;-76
2023/03/06 00:54:06;;;;;;;33.65;12.55;;;;;;;;;;5012516;28;20032;-76
2023/03/06 00:56:34;;;;;;;33.10;12.70;;;;;;;;;;5019508;28;20032;-76
2023/03/06 00:58:59;;;;;;;33.58;13.02;;;;;;;;;;5022303;28;20026;-76
2023/03/06 01:01:28;;;;;;;37.75;14.00;;;;;;;;;;5031113;28;20025;-76
2023/03/06 01:03:53;;;;;;;30.48;12.70;;;;;;;;;;5023220;28;20121;-77
2023/03/06 01:06:19;;;;;;;30.15;12.25;;;;;;;;;;5023585;28;20559;-76
2023/03/06 01:08:46;;;;;;;30.73;11.77;;;;;;;;;;5031555;28;20377;-76
2023/03/06 01:11:12;;;;;;;29.35;12.05;;;;;;;;;;5026937;28;20075;-76
2023/03/06 01:13:37;;;;;;;31.35;13.35;;;;;;;;;;5021263;28;20531;-76
2023/03/06 01:16:14;;;;;;;31.75;13.00;;;;;;;;;;5021067;28;20504;-76
2023/03/06 01:18:40;;;;;;;37.08;12.88;;;;;;;;;;5021632;28;20480;-76
2023/03/06 01:21:05;;;;;;;34.58;13.27;;;;;;;;;;5029555;28;20029;-76
2023/03/06 01:23:31;;;;;;;30.92;13.82;;;;;;;;;;5019249;28;20026;-76
2023/03/06 01:25:59;;;;;;;34.03;12.35;;;;;;;;;;5017905;28;20116;-76
2023/03/06 01:28:25;;;;;;;30.80;12.88;;;;;;;;;;5022169;28;20028;-76
2023/03/06 01:30:51;;;;;;;31.38;12.77;;;;;;;;;;5017062;28;20030;-75
2023/03/06 01:33:16;;;;;;;30.60;13.23;;;;;;;;;;5027536;28;20078;-76
2023/03/06 01:35:42;;;;;;;34.05;13.70;;;;;;;;;;5018526;28;20018;-76
2023/03/06 01:38:07;;;;;;;31.45;13.27;;;;;;;;;;5022020;28;20053;-76
2023/03/06 01:40:34;;;;;;;33.30;12.40;;;;;;;;;;5017925;28;20431;-75
2023/03/06 01:43:25;;;;;;;30.48;11.95;;;;;;;;;;5019043;28;20025;-76
2023/03/06 01:45:50;;;;;;;31.35;11.85;;;;;;;;;;5020561;28;20021;-76
2023/03/06 01:48:21;;;;;;;33.00;13.27;;;;;;;;;;5019461;28;20121;-76
2023/03/06 01:50:47;;;;;;;30.30;12.15;;;;;;;;;;5019030;28;20088;-76
2023/03/06 01:53:14;;;;;;;36.17;12.68;;;;;;;;;;5019224;28;20395;-75
2023/03/06 01:55:39;;;;;;;28.67;11.85;;;;;;;;;;5022292;28;20468;-75
2023/03/06 01:58:14;;;;;;;32.83;12.50;;;;;;;;;;5028904;28;20040;-77
2023/03/06 02:00:39;;;;;;;30.55;12.13;;;;;;;;;;5018828;28;20014;-77
2023/03/06 02:03:10;;;;;;;28.52;12.30;;;;;;;;;;5021242;28;20044;-76
2023/03/06 02:05:40;;;;;;;30.48;11.73;;;;;;;;;;5019939;28;20282;-75
2023/03/06 02:08:07;;;;;;;32.85;11.45;;;;;;;;;;5022302;28;20027;-77
2023/03/06 02:10:33;;;;;;;36.25;12.73;;;;;;;;;;5024937;28;20037;-76
2023/03/06 02:12:59;;;;;;;29.38;11.93;;;;;;;;;;5018929;28;20044;-76
2023/03/06 02:15:26;;;;;;;27.02;11.38;;;;;;;;;;5024753;28;20439;-77
2023/03/06 02:17:52;;;;;;;30.95;12.27;;;;;;;;;;5028096;28;20040;-76
2023/03/06 02:20:30;;;;;;;26.77;11.20;;;;;;;;;;5024923;28;20029;-77
2023/03/06 02:23:15;;;;;;;27.80;11.13;;;;;;;;;;5033827;28;20029;-76
2023/03/06 02:25:43;;;;;;;30.90;12.30;;;;;;;;;;5026879;28;20053;-76
2023/03/06 02:28:15;;;;;;;26.23;11.63;;;;;;;;;;5017872;28;20394;-76
2023/03/06 02:30:42;;;;;;;25.13;11.45;;;;;;;;;;5027173;28;20010;-77
2023/03/06 02:33:13;;;;;;;26.95;11.65;;;;;;;;;;5027708;28;20056;-77
2023/03/06 02:35:45;;;;;;;29.27;11.02;;;;;;;;;;5023294;28;20120;-76
2023/03/06 02:38:14;;;;;;;27.13;10.88;;;;;;;;;;5025411;28;20484;-76
2023/03/06 02:40:45;;;;;;;27.23;11.77;;;;;;;;;;5022689;28;20038;-77
2023/03/06 02:43:15;;;;;;;27.65;10.50;;;;;;;;;;5024898;28;20065;-77
2023/03/06 02:45:48;;;;;;;;;;;;;;;;;;5021888;28;20049;-78
2023/03/06 02:48:15;;;;;;;28.05;11.02;;;;;;;;;;5030730;28;19913;-77
2023/03/06 02:50:41;;;;;;;27.90;10.57;;;;;;;;;;5021832;28;20017;-76
2023/03/06 02:53:08;;;;;;;28.65;11.27;;;;;;;;;;5026216;28;20017;-75
2023/03/06 02:55:35;;;;;;;23.83;10.23;;;;;;;;;;5029462;28;20026;-76
2023/03/06 02:58:00;;;;;;;30.63;11.27;;;;;;;;;;5022271;28;20072;-76
2023/03/06 03:00:28;;;;;;;26.30;10.65;;;;;;;;;;5029382;28;20477;-76
2023/03/06 03:02:53;;;;;;;26.92;10.73;;;;;;;;;;5024015;28;20262;-76
2023/03/06 03:05:19;;;;;;;28.73;11.20;;;;;;;;;;5025371;28;20532;-75
2023/03/06 03:07:47;;;;;;;26.17;11.40;;;;;;;;;;5024677;28;20107;-76
2023/03/06 03:10:13;;;;;;;27.58;11.30;;;;;;;;;;5023099;28;20495;-74
2023/03/06 03:12:39;;;;;;;28.35;11.40;;;;;;;;;;5023818;28;20025;-77
2023/03/06 03:15:05;;;;;;;26.20;10.85;;;;;;;;;;5030078;28;20507;-77
2023/03/06 03:17:33;;;;;;;30.10;12.25;;;;;;;;;;5021663;28;20690;-77
2023/03/06 03:19:59;;;;;;;29.08;12.07;;;;;;;;;;5020614;28;20481;-77
2023/03/06 03:22:24;;;;;;;25.20;11.25;;;;;;;;;;5031985;28;20083;-77
2023/03/06 03:24:50;;;;;;;26.80;11.25;;;;;;;;;;5022862;28;20025;-76
2023/03/06 03:27:15;;;;;;;29.15;11.23;;;;;;;;;;5022798;28;20075;-76
2023/03/06 03:29:41;;;;;;;25.42;11.88;;;;;;;;;;5029050;28;20523;-76
2023/03/06 03:32:07;;;;;;;27.58;10.98;;;;;;;;;;5023805;28;20021;-76
2023/03/06 03:34:32;;;;;;;27.10;11.02;;;;;;;;;;5020205;28;20447;-75
2023/03/06 03:36:57;;;;;;;29.08;11.13;;;;;;;;;;5021930;28;20022;-76
2023/03/06 03:39:25;;;;;;;30.55;11.65;;;;;;;;;;5017506;28;20056;-77
2023/03/06 03:41:53;;;;;;;24.90;11.60;;;;;;;;;;5027506;28;20036;-76
2023/03/06 03:44:20;;;;;;;29.38;11.60;;;;;;;;;;5021416;28;20025;-76
2023/03/06 03:46:51;;;;;;;24.20;10.98;;;;;;;;;;5020058;28;20022;-76
2023/03/06 03:49:17;;;;;;;27.00;11.45;;;;;;;;;;5023415;28;20036;-76
2023/03/06 03:51:45;;;;;;;28.10;12.05;;;;;;;;;;5023129;28;20392;-76
2023/03/06 03:54:10;;;;;;;31.85;12.63;;;;;;;;;;5022234;28;20025;-77
2023/03/06 03:56:39;;;;;;;32.38;12.10;;;;;;;;;;5020221;28;20033;-77
2023/03/06 03:59:05;;;;;;;28.10;12.53;;;;;;;;;;5020425;28;20548;-76
2023/03/06 04:01:30;;;;;;;29.95;11.80;;;;;;;;;;5023049;28;20371;-76
2023/03/06 04:03:56;;;;;;;25.63;11.82;;;;;;;;;;5023225;28;20075;-76
2023/03/06 04:06:23;;;;;;;26.58;11.38;;;;;;;;;;5021956;28;20061;-76
2023/03/06 04:08:49;;;;;;;29.17;12.07;;;;;;;;;;5020938;28;20035;-77
2023/03/06 04:11:14;;;;;;;24.58;10.80;;;;;;;;;;5028451;28;20021;-76
2023/03/06 04:13:40;;;;;;;29.85;12.07;;;;;;;;;;5022828;28;20136;-76
2023/03/06 04:16:05;;;;;;;25.38;10.77;;;;;;;;;;5031964;28;20087;-76
2023/03/06 04:18:33;;;;;;;27.33;11.48;;;;;;;;;;5023206;28;20021;-76
2023/03/06 04:20:59;;;;;;;27.80;11.15;;;;;;;;;;5029606;28;20492;-76
2023/03/06 04:23:25;;;;;;;31.73;12.45;;;;;;;;;;5023338;28;20032;-76
2023/03/06 04:25:53;;;;;;;27.58;11.68;;;;;;;;;;5032092;28;20060;-76
2023/03/06 04:28:18;;;;;;;30.23;11.57;;;;;;;;;;5023693;28;20029;-76
2023/03/06 04:30:46;;;;;;;26.20;10.60;;;;;;;;;;5018052;28;20022;-77
2023/03/06 04:33:11;;;;;;;26.73;11.15;;;;;;;;;;5022397;28;20487;-76
2023/03/06 04:35:37;;;;;;;28.25;11.35;;;;;;;;;;5018569;28;20026;-76
2023/03/06 04:38:03;;;;;;;25.63;11.25;;;;;;;;;;5018884;28;20037;-76
2023/03/06 04:40:30;;;;;;;27.77;11.80;;;;;;;;;;5022979;28;20105;-77
2023/03/06 04:42:57;;;;;;;26.88;11.10;;;;;;;;;;5026941;28;20045;-76
2023/03/06 04:45:24;;;;;;;28.35;11.38;;;;;;;;;;5021235;28;20038;-77
2023/03/06 04:47:50;;;;;;;28.05;12.15;;;;;;;;;;5031269;28;20151;-76
2023/03/06 04:50:16;;;;;;;28.67;12.13;;;;;;;;;;5022473;28;20109;-76
2023/03/06 04:52:42;;;;;;;27.00;11.73;;;;;;;;;;5027787;28;20040;-76
2023/03/06 04:55:12;;;;;;;27.08;11.25;;;;;;;;;;5022681;28;20030;-75
2023/03/06 04:57:40;;;;;;;27.77;11.02;;;;;;;;;;5017990;28;20026;-78
2023/03/06 05:00:09;;;;;;;20.67;9.52;;;;;;;;;;5020320;28;20029;-77
2023/03/06 05:02:35;;;;;;;26.50;11.05;;;;;;;;;;5021797;28;20491;-76
2023/03/06 05:05:01;;;;;;;22.65;9.90;;;;;;;;;;5023097;28;20103;-76
2023/03/06 05:07:26;;;;;;;23.67;9.77;;;;;;;;;;5023442;28;20021;-76
2023/03/06 05:09:54;;;;;;;20.38;9.38;;;;;;;;;;5024049;28;20026;-76
2023/03/06 05:12:22;;;;;;;23.05;10.32;;;;;;;;;;5025065;28;20026;-76
2023/03/06 05:14:47;;;;;;;23.50;10.77;;;;;;;;;;5023970;28;20021;-77
2023/03/06 05:17:15;;;;;;;21.33;9.50;;;;;;;;;;5022396;28;20072;-76
2023/03/06 05:19:40;;;;;;;21.60;9.50;;;;;;;;;;5022894;28;20037;-76
2023/03/06 05:22:06;;;;;;;25.90;9.80;;;;;;;;;;5014030;28;20022;-77
2023/03/06 05:24:31;;;;;;;22.67;10.20;;;;;;;;;;5021914;28;20029;-76
2023/03/06 05:26:56;;;;;;;23.25;10.25;;;;;;;;;;5022049;28;20030;-76
2023/03/06 05:29:22;;;;;;;22.73;9.98;;;;;;;;;;5022659;28;20090;-76
2023/03/06 05:31:47;;;;;;;22.52;10.20;;;;;;;;;;5014651;28;20029;-77
2023/03/06 05:34:16;;;;;;;26.73;11.77;;;;;;;;;;5020895;28;20018;-76
2023/03/06 05:36:42;;;;;;;22.55;10.75;;;;;;;;;;5026473;28;20399;-76
2023/03/06 05:39:08;;;;;;;42.67;15.68;;;;;;;;;;5019750;28;20034;-76
2023/03/06 05:41:36;;;;;;;37.67;15.80;;;;;;;;;;5023546;28;20026;-76
2023/03/06 05:44:02;;;;;;;34.08;14.02;;;;;;;;;;5024182;28;20040;-77
2023/03/06 05:46:29;;;;;;;24.75;11.65;;;;;;;;;;5025301;28;20116;-76
2023/03/06 05:48:56;;;;;;;20.40;9.88;;;;;;;;;;5017825;28;20025;-76
2023/03/06 05:51:23;;;;;;;20.77;10.02;;;;;;;;;;5026704;28;20025;-76
2023/03/06 05:53:48;;;;;;;25.30;10.80;;;;;;;;;;5020473;28;20109;-76
2023/03/06 05:56:16;;;;;;;30.35;12.18;;;;;;;;;;5020830;28;20096;-76
2023/03/06 05:58:41;;;;;;;23.02;11.55;;;;;;;;;;5024140;28;20472;-76
2023/03/06 06:01:19;;;;;;;26.92;11.07;;;;;;;;;;5020831;28;20076;-75
2023/03/06 06:03:45;;;;;;;25.98;11.45;;;;;;;;;;5028406;28;20065;-75
2023/03/06 06:06:12;;;;;;;27.90;12.43;;;;;;;;;;5018281;28;20084;-76
2023/03/06 06:08:38;;;;;;;27.88;11.25;;;;;;;;;;5016741;28;20037;-77
2023/03/06 06:11:04;;;;;;;38.72;16.45;;;;;;;;;;5025256;28;20034;-76
2023/03/06 06:13:31;;;;;;;28.30;11.98;;;;;;;;;;5020850;28;20024;-77
2023/03/06 06:15:56;;;;;;;20.85;8.82;;;;;;;;;;5028962;28;20071;-77
2023/03/06 06:18:24;;;;;;;24.20;10.23;;;;;;;;;;5026894;28;20025;-76
2023/03/06 06:20:49;;;;;;;25.75;11.57;;;;;;;;;;5017038;28;20030;-77
2023/03/06 06:23:14;;;;;;;23.83;11.32;;;;;;;;;;5023440;28;20035;-76
2023/03/06 06:25:40;;;;;;;25.38;11.30;;;;;;;;;;5036700;28;20017;-76
2023/03/06 06:28:06;;;;;;;26.85;11.85;;;;;;;;;;5023120;28;20025;-76
2023/03/06 06:30:32;;;;;;;31.70;13.40;;;;;;;;;;5024713;28;20037;-76
2023/03/06 06:32:58;;;;;;;27.35;12.95;;;;;;;;;;5015901;28;20026;-75
2023/03/06 06:35:26;;;;;;;24.73;11.73;;;;;;;;;;5028110;28;20048;-75
2023/03/06 06:37:51;;;;;;;22.55;11.30;;;;;;;;;;5025925;28;20083;-74
2023/03/06 06:40:17;;;;;;;26.95;11.63;;;;;;;;;;5028918;28;20033;-74
2023/03/06 06:42:43;;;;;;;30.10;11.77;;;;;;;;;;5025193;28;20025;-74
2023/03/06 06:45:10;;;;;;;29.10;11.05;;;;;;;;;;5032117;28;20546;-74
2023/03/06 06:47:39;;;;;;;22.92;11.02;;;;;;;;;;5025690;28;20021;-74
2023/03/06 06:50:08;;;;;;;24.27;10.63;;;;;;;;;;5026743;28;20241;-74
2023/03/06 06:52:34;;;;;;;27.38;11.52;;;;;;;;;;5026981;28;20483;-75
2023/03/06 06:54:59;;;;;;;30.17;11.68;;;;;;;;;;5026710;28;20084;-75
2023/03/06 06:57:25;;;;;;;26.02;11.68;;;;;;;;;;5027351;28;20025;-75
2023/03/06 06:59:53;;;;;;;23.60;11.40;;;;;;;;;;5032252;28;20039;-74
2023/03/06 07:02:21;;;;;;;22.95;10.30;;;;;;;;;;5032495;28;20056;-74
2023/03/06 07:04:49;;;;;;;25.90;11.50;;;;;;;;;;5030909;28;20417;-74
2023/03/06 07:07:14;;;;;;;25.58;11.27;;;;;;;;;;5030043;28;20116;-74
2023/03/06 07:09:40;;;;;;;27.65;12.02;;;;;;;;;;5033801;28;20108;-75
2023/03/06 07:12:07;;;;;;;22.92;11.57;;;;;;;;;;5027611;28;20036;-74
2023/03/06 07:14:32;;;;;;;26.65;13.05;;;;;;;;;;5029616;28;20435;-74
2023/03/06 07:16:58;;;;;;;27.98;12.02;;;;;;;;;;5026300;28;20027;-75
2023/03/06 07:19:23;;;;;;;25.48;11.07;;;;;;;;;;5032019;28;20409;-76
2023/03/06 07:21:50;;;;;;;26.50;13.68;;;;;;;;;;5031604;28;20503;-76
2023/03/06 07:24:15;;;;;;;27.77;12.50;;;;;;;;;;5030064;28;20029;-75
2023/03/06 07:26:45;;;;;;;24.38;12.20;;;;;;;;;;5031084;28;20044;-75
2023/03/06 07:29:11;;;;;;;24.52;11.70;;;;;;;;;;5029489;28;20021;-75
2023/03/06 07:31:38;;;;;;;22.30;10.38;;;;;;;;;;5028308;28;20022;-75
2023/03/06 07:34:08;;;;;;;24.63;10.85;;;;;;;;;;5024534;28;20056;-75
2023/03/06 07:36:34;;;;;;;22.48;10.55;;;;;;;;;;5028767;28;20144;-76
2023/03/06 07:39:02;;;;;;;21.88;10.98;;;;;;;;;;5028862;28;20048;-76
2023/03/06 07:41:27;;;;;;;26.77;10.88;;;;;;;;;;5031434;28;20095;-74
2023/03/06 07:43:53;;;;;;;24.52;11.63;;;;;;;;;;5027049;28;20105;-74
2023/03/06 07:46:18;;;;;;;22.52;10.73;;;;;;;;;;5026405;28;20025;-77
2023/03/06 07:48:44;;;;;;;25.00;11.05;;;;;;;;;;5033305;28;20532;-76
2023/03/06 07:51:18;;;;;;;23.88;10.73;;;;;;;;;;5030373;28;20500;-76
2023/03/06 07:53:43;;;;;;;25.80;11.05;;;;;;;;;;5024686;28;20040;-76
2023/03/06 07:56:10;;;;;;;23.88;11.43;;;;;;;;;;5024026;28;21224;-76
2023/03/06 07:58:40;;;;;;;24.88;11.20;;;;;;;;;;5025490;28;20026;-74
2023/03/06 08:01:09;;;;;;;24.45;11.07;;;;;;;;;;5025944;28;20104;-75
2023/03/06 08:03:35;;;;;;;27.58;13.73;;;;;;;;;;5028888;28;20109;-75
2023/03/06 08:06:15;;;;;;;30.52;13.38;;;;;;;;;;5027914;28;20495;-76
2023/03/06 08:08:42;;;;;;;25.38;11.43;;;;;;;;;;5023745;28;20068;-76
2023/03/06 08:11:09;;;;;;;24.70;13.18;;;;;;;;;;5028193;28;20037;-76
2023/03/06 08:13:35;;;;;;;34.00;15.77;;;;;;;;;;5024972;28;20511;-78
2023/03/06 08:16:01;;;;;;;24.75;11.98;;;;;;;;;;5029814;28;20033;-77
2023/03/06 08:18:27;;;;;;;25.70;11.45;;;;;;;;;;5029000;28;20500;-77
2023/03/06 08:21:12;;;;;;;27.73;11.77;;;;;;;;;;5031572;28;20032;-77
2023/03/06 08:23:40;;;;;;;22.55;11.18;;;;;;;;;;5029056;28;20032;-77
2023/03/06 08:26:09;;;;;;;29.77;13.30;;;;;;;;;;5028192;28;20443;-76
2023/03/06 08:28:35;;;;;;;22.70;10.90;;;;;;;;;;5025574;28;20100;-75
2023/03/06 08:31:20;;;;;;;21.48;10.10;;;;;;;;;;5045427;28;20120;-76
2023/03/06 08:33:46;;;;;;;21.38;11.02;;;;;;;;;;5025456;28;20021;-76
2023/03/06 08:36:11;;;;;;;22.33;10.52;;;;;;;;;;5030320;28;20061;-76
2023/03/06 08:38:37;;;;;;;22.70;11.30;;;;;;;;;;5029270;28;20072;-76
2023/03/06 08:41:02;;;;;;;22.38;10.63;;;;;;;;;;5028939;28;20511;-76
2023/03/06 08:43:30;;;;;;;20.60;10.18;;;;;;;;;;5028589;28;20029;-76
2023/03/06 08:45:57;;;;;;;23.42;10.40;;;;;;;;;;5028182;28;20021;-76
2023/03/06 08:48:23;;;;;;;27.05;11.13;;;;;;;;;;5027076;28;20080;-74
2023/03/06 08:50:48;;;;;;;23.10;10.50;;;;;;;;;;5028595;28;20024;-75
2023/03/06 08:53:14;;;;;;;25.65;10.65;;;;;;;;;;5027832;28;20029;-75
2023/03/06 08:55:39;;;;;;;27.70;11.60;;;;;;;;;;5029627;28;20071;-74
2023/03/06 08:58:05;;;;;;;24.67;10.98;;;;;;;;;;5027819;28;20558;-74
2023/03/06 09:00:32;;;;;;;25.55;11.13;;;;;;;;;;5031634;28;20025;-74
2023/03/06 09:02:57;;;;;;;22.45;11.10;;;;;;;;;;5031499;28;20306;-75
2023/03/06 09:05:23;;;;;;;23.75;10.95;;;;;;;;;;5028899;28;20492;-74
2023/03/06 09:07:50;;;;;;;22.30;10.57;;;;;;;;;;5029030;28;20040;-74
2023/03/06 09:10:21;;;;;;;23.67;11.63;;;;;;;;;;5027967;28;20021;-74
2023/03/06 09:12:52;;;;;;;23.80;10.45;;;;;;;;;;5033149;28;20396;-76
2023/03/06 09:15:18;;;;;;;20.45;10.55;;;;;;;;;;5019487;28;20049;-76
2023/03/06 09:17:44;;;;;;;20.50;11.20;;;;;;;;;;5025250;28;20391;-76
2023/03/06 09:20:11;;;;;;;19.85;9.35;;;;;;;;;;5032224;28;20113;-77
2023/03/06 09:22:41;;;;;;;20.70;9.65;;;;;;;;;;5029777;28;20443;-76
2023/03/06 09:25:08;;;;;;;22.10;10.60;;;;;;;;;;5024585;28;20021;-76
2023/03/06 09:27:33;;;;;;;21.23;9.13;;;;;;;;;;5019666;28;20036;-76
2023/03/06 09:29:59;;;;;;;22.00;10.45;;;;;;;;;;5024303;28;20026;-76
2023/03/06 09:32:24;;;;;;;20.95;10.27;;;;;;;;;;5031056;28;20029;-77
2023/03/06 09:34:49;;;;;;;21.83;10.23;;;;;;;;;;5033942;28;20250;-76
2023/03/06 09:37:16;;;;;;;21.75;9.48;;;;;;;;;;5030641;28;20029;-76
2023/03/06 09:39:41;;;;;;;17.70;8.50;;;;;;;;;;5028848;28;20438;-76
2023/03/06 09:42:11;;;;;;;20.73;9.70;;;;;;;;;;5029007;28;20048;-76
2023/03/06 09:44:42;;;;;;;18.02;8.95;;;;;;;;;;5023910;28;20088;-76
2023/03/06 09:47:26;;;;;;;17.83;8.80;;;;;;;;;;5028064;28;20033;-76
2023/03/06 09:50:10;;;;;;;17.35;8.77;;;;;;;;;;5027564;28;20029;-76
2023/03/06 09:52:51;;;;;;;18.67;8.30;;;;;;;;;;5029375;28;20036;-76
2023/03/06 09:55:37;;;;;;;18.48;8.95;;;;;;;;;;5028347;28;20396;-76
2023/03/06 09:58:18;;;;;;;18.52;8.48;;;;;;;;;;5023271;28;20029;-76
2023/03/06 10:01:16;;;;;;;16.75;8.07;;;;;;;;;;5024913;28;20029;-76
2023/03/06 10:03:56;;;;;;;15.27;7.93;;;;;;;;;;5026072;28;20081;-76
2023/03/06 10:06:49;;;;;;;16.67;8.27;;;;;;;;;;5030014;28;20384;-76
2023/03/06 10:09:36;;;;;;;17.33;8.45;;;;;;;;;;5025654;28;20035;-76
2023/03/06 10:12:11;;;;;;;14.45;7.68;;;;;;;;;;5025580;28;20236;-76
2023/03/06 10:14:42;;;;;;;16.80;7.65;;;;;;;;;;5025954;28;20060;-76
2023/03/06 10:17:15;;;;;;;16.92;7.93;;;;;;;;;;5026188;28;20025;-76
2023/03/06 10:19:41;;;;;;;17.67;8.18;;;;;;;;;;5028812;28;20029;-75
2023/03/06 10:32:48;;;;;;;16.33;8.02;;;;;;;;;;5013379;28;20037;-76
2023/03/06 10:35:18;;;;;;;15.82;7.53;;;;;;;;;;5034208;28;20124;-76
2023/03/06 10:37:43;;;;;;;15.38;7.72;;;;;;;;;;5032155;28;20112;-76
2023/03/06 10:40:21;;;;;;;17.88;8.00;;;;;;;;;;5027975;28;20108;-76
2023/03/06 10:42:47;;;;;;;17.30;7.80;;;;;;;;;;5029019;28;20099;-76
2023/03/06 10:45:15;;;;;;;16.70;7.88;;;;;;;;;;5029221;28;20108;-76
2023/03/06 10:47:42;;;;;;;18.23;9.48;;;;;;;;;;5030641;28;20109;-76
2023/03/06 10:50:23;;;;;;;16.27;7.85;;;;;;;;;;5029992;28;20026;-77
2023/03/06 10:53:03;;;;;;;15.10;7.97;;;;;;;;;;5049662;28;20416;-76
2023/03/06 10:55:37;;;;;;;15.13;8.15;;;;;;;;;;5032807;28;20507;-75
2023/03/06 10:58:31;;;;;;;16.38;8.80;;;;;;;;;;5031244;28;20044;-77
2023/03/06 11:01:19;;;;;;;16.98;8.02;;;;;;;;;;5027423;28;20496;-75
2023/03/06 11:03:47;;;;;;;16.25;8.27;;;;;;;;;;5031593;28;20112;-75
2023/03/06 11:06:29;;;;;;;15.05;8.77;;;;;;;;;;5032275;28;20068;-75
2023/03/06 11:09:25;;;;;;;16.73;8.65;;;;;;;;;;5029013;28;20135;-75
2023/03/06 11:12:11;;;;;;;15.38;8.48;;;;;;;;;;5032040;28;20103;-74
2023/03/06 11:14:37;;;;;;;16.63;8.00;;;;;;;;;;5024237;28;20026;-75
2023/03/06 11:17:03;;;;;;;17.55;9.00;;;;;;;;;;5031423;28;20468;-77
2023/03/06 11:19:31;;;;;;;16.60;8.63;;;;;;;;;;5035758;28;20067;-77
2023/03/06 11:22:02;;;;;;;17.33;8.52;;;;;;;;;;5031210;28;20033;-76
2023/03/06 11:24:38;;;;;;;15.73;8.27;;;;;;;;;;5028409;28;20017;-75
2023/03/06 11:27:21;;;;;;;16.77;8.55;;;;;;;;;;5028025;28;20029;-76
2023/03/06 11:29:53;;;;;;;16.42;9.30;;;;;;;;;;5027043;28;20026;-76
2023/03/06 11:32:42;;;;;;;20.42;8.75;;;;;;;;;;5027968;28;20049;-76
2023/03/06 11:35:23;;;;;;;18.60;8.63;;;;;;;;;;5019817;28;20028;-76
2023/03/06 11:37:52;;;;;;;19.13;9.27;;;;;;;;;;5030624;28;20277;-79
2023/03/06 11:40:30;;;;;;;17.23;8.75;;;;;;;;;;5024747;28;20029;-75
2023/03/06 11:43:08;;;;;;;16.73;8.93;;;;;;;;;;5024190;28;20037;-76
2023/03/06 11:45:48;;;;;;;19.05;9.30;;;;;;;;;;5025277;28;20545;-76
2023/03/06 11:48:14;;;;;;;19.33;9.35;;;;;;;;;;5023573;28;20459;-76
2023/03/06 11:50:46;;;;;;;18.75;9.68;;;;;;;;;;5028995;28;20044;-76
2023/03/06 11:53:18;;;;;;;16.80;8.98;;;;;;;;;;5028840;28;20041;-75
2023/03/06 11:56:08;;;;;;;15.68;7.75;;;;;;;;;;5025946;28;20033;-75
2023/03/06 11:58:55;;;;;;;15.80;8.85;;;;;;;;;;5025137;28;20022;-74
2023/03/06 12:01:40;;;;;;;19.70;8.60;;;;;;;;;;5028763;28;20032;-76
2023/03/06 12:04:27;;;;;;;15.02;8.18;;;;;;;;;;5030561;28;20078;-76
2023/03/06 12:07:18;;;;;;;16.27;7.90;;;;;;;;;;5030586;28;20112;-76
2023/03/06 12:09:54;;;;;;;16.98;8.88;;;;;;;;;;5043331;28;20138;-76
2023/03/06 12:12:41;;;;;;;17.00;9.07;;;;;;;;;;5022851;28;20029;-76
2023/03/06 12:15:27;;;;;;;17.60;9.02;;;;;;;;;;5028510;28;20047;-75
2023/03/06 12:18:21;;;;;;;17.30;9.00;;;;;;;;;;5044471;28;20029;-77
2023/03/06 12:21:01;;;;;;;19.00;10.32;;;;;;;;;;5028755;28;20067;-76
2023/03/06 12:23:43;;;;;;;16.90;8.80;;;;;;;;;;5025937;28;20606;-76
2023/03/06 12:26:30;;;;;;;18.48;9.18;;;;;;;;;;5029370;28;20025;-76
2023/03/06 12:29:14;;;;;;;17.92;8.52;;;;;;;;;;5030245;28;20029;-76
2023/03/06 12:32:07;;;;;;;17.88;8.10;;;;;;;;;;5029569;28;20021;-76
2023/03/06 12:34:32;;;;;;;16.23;8.52;;;;;;;;;;5026135;28;20064;-76
2023/03/06 12:37:28;;;;;;;13.10;7.20;;;;;;;;;;5031093;28;20052;-76
2023/03/06 12:40:11;;;;;;;19.83;7.30;;;;;;;;;;5025181;28;20440;-75
2023/03/06 12:42:59;;;;;;;16.25;8.90;;;;;;;;;;5025795;28;20079;-76
2023/03/06 12:45:35;;;;;;;12.10;6.32;;;;;;;;;;5026319;28;20494;-75
2023/03/06 12:48:02;;;;;;;11.80;6.15;;;;;;;;;;5028031;28;20033;-76
2023/03/06 12:50:37;;;;;;;13.23;7.00;;;;;;;;;;5026225;28;20021;-75
2023/03/06 12:53:06;;;;;;;11.15;5.95;;;;;;;;;;5025589;28;20056;-76
2023/03/06 12:55:41;;;;;;;14.00;8.10;;;;;;;;;;5025617;28;20029;-75
2023/03/06 12:58:31;;;;;;;12.73;6.50;;;;;;;;;;5026545;28;20272;-76
2023/03/06 13:01:22;;;;;;;17.60;7.90;;;;;;;;;;5016038;28;20404;-76
2023/03/06 13:04:16;;;;;;;9.73;6.03;;;;;;;;;;5025877;28;20025;-76
2023/03/06 13:07:01;;;;;;;12.57;7.38;;;;;;;;;;5030082;28;20037;-76
2023/03/06 13:10:21;;;;;;;11.68;6.22;;;;;;;;;;5023014;28;20034;-77
2023/03/06 13:12:49;;;;;;;;;;;;;;;;;;5023070;28;20105;-77
2023/03/06 13:15:32;;;;;;;12.77;6.88;;;;;;;;;;5043314;28;20399;-78
2023/03/06 13:17:59;;;;;;;12.50;6.90;;;;;;;;;;5022861;28;20152;-78
2023/03/06 13:20:31;;;;;;;12.43;7.60;;;;;;;;;;5025727;28;20083;-77
2023/03/06 13:22:57;;;;;;;13.70;6.90;;;;;;;;;;5026133;28;20021;-76
2023/03/06 13:25:25;;;;;;;11.27;6.90;;;;;;;;;;5026991;28;20036;-78
2023/03/06 13:27:53;;;;;;;10.70;6.82;;;;;;;;;;5023227;28;20036;-76
2023/03/06 13:30:40;;;;;;;13.48;6.07;;;;;;;;;;5045268;28;20361;-77
2023/03/06 13:33:28;;;;;;;10.25;6.10;;;;;;;;;;5025665;28;20034;-76
2023/03/06 13:35:57;;;;;;;11.52;6.10;;;;;;;;;;5025962;28;20021;-77
2023/03/06 13:38:53;;;;;;;12.73;6.90;;;;;;;;;;5029057;28;20033;-77
2023/03/06 13:41:22;;;;;;;11.90;6.55;;;;;;;;;;5028561;28;20068;-77
2023/03/06 13:43:55;;;;;;;10.20;6.30;;;;;;;;;;5031209;28;20032;-77
2023/03/06 13:46:26;;;;;;;13.02;6.95;;;;;;;;;;5026531;28;20033;-77
2023/03/06 13:49:16;;;;;;;11.55;6.60;;;;;;;;;;5021835;28;20037;-77
2023/03/06 13:51:50;;;;;;;12.65;6.07;;;;;;;;;;5028288;28;20559;-76
2023/03/06 13:54:31;;;;;;;12.00;6.90;;;;;;;;;;5023981;28;20036;-75
2023/03/06 13:57:22;;;;;;;13.30;7.20;;;;;;;;;;5024633;28;20026;-75
2023/03/06 14:00:15;;;;;;;12.32;6.88;;;;;;;;;;5021082;28;20079;-75
2023/03/06 14:03:05;;;;;;;12.90;7.15;;;;;;;;;;5028528;28;20496;-75
2023/03/06 14:05:51;;;;;;;;;;;;;;;;;;5031579;28;20037;-75
2023/03/06 14:08:19;;;;;;;14.15;6.28;;;;;;;;;;5024748;28;19917;-76
2023/03/06 14:10:47;;;;;;;14.70;6.75;;;;;;;;;;5026378;28;20473;-75
2023/03/06 14:13:42;;;;;;;14.25;7.20;;;;;;;;;;5020983;28;20037;-76
2023/03/06 14:16:24;;;;;;;11.55;6.18;;;;;;;;;;5027119;28;20529;-76
2023/03/06 14:18:52;;;;;;;11.45;5.90;;;;;;;;;;5028804;28;20044;-76
2023/03/06 14:21:29;;;;;;;12.45;6.40;;;;;;;;;;5025886;28;20113;-76
2023/03/06 14:24:00;;;;;;;10.27;5.68;;;;;;;;;;5020154;28;20021;-76
2023/03/06 14:26:30;;;;;;;12.20;6.10;;;;;;;;;;5022804;28;20029;-75
2023/03/06 14:29:00;;;;;;;10.80;6.13;;;;;;;;;;5028188;28;20051;-77
2023/03/06 14:31:48;;;;;;;12.40;6.53;;;;;;;;;;5021187;28;20021;-76
2023/03/06 14:34:19;;;;;;;10.00;5.90;;;;;;;;;;5025064;28;20068;-77
2023/03/06 14:36:48;;;;;;;9.20;5.53;;;;;;;;;;5019789;28;20026;-77
2023/03/06 14:39:30;;;;;;;10.35;6.63;;;;;;;;;;5026535;28;20036;-75
2023/03/06 14:42:06;;;;;;;11.20;6.15;;;;;;;;;;5027138;28;20531;-76
2023/03/06 14:44:31;;;;;;;12.63;6.68;;;;;;;;;;5028222;28;20026;-76
2023/03/06 14:47:19;;;;;;;12.60;7.53;;;;;;;;;;5025790;28;20040;-76
2023/03/06 14:49:45;;;;;;;17.40;7.55;;;;;;;;;;5026685;28;20625;-75
2023/03/06 14:52:17;;;;;;;10.63;5.10;;;;;;;;;;5028077;28;20033;-76
2023/03/06 14:54:44;;;;;;;12.00;6.78;;;;;;;;;;5045596;28;20071;-75